Station Historical Data
Daily Summary for January 10, 2018 Units:  English    Metric   Both
« Previous Day
Next Day »
Daily Weekly Monthly Yearly Custom
  High: Low: Average:
Temperature: TemperatureF °F 18.8 °F 43.2 °F
Dew Point: DewpointF °F 15.3 °F 36.6 °F
Humidity: Humidity% 58% 76%
Wind Speed: WindSpeedMPHmph 0.0mph 5.2mph
Wind Gust: WindSpeedGustMPHmph - -
Wind- - South
Pressure: PressureIn in 30.06 in -
Precipitation: 0.00 in    
Historical Graphs
 
 
Tabular Data for January 10, 2018
Time Temperature Dew Point Pressure Wind Wind Speed Wind Gust Humidity Rainfall Rate (Hourly)
TemperatureF °F DewpointF °F PressureIn in Calm     Humidity% HourlyPrecipIn in
08:09 18.8 °F 15.3 °F 30.31 in Calm   3.0 mph 86% 0.00 in
08:59 22.7 °F 18.9 °F 30.29 in SE 1.0 mph 4.0 mph 85% 0.00 in
09:49 28.3 °F 20.7 °F 30.28 in ESE 1.0 mph 4.0 mph 73% 0.00 in
12:09 39.1 °F 25.6 °F 30.19 in East 1.0 mph 3.0 mph 58% 0.01 in
19:09 44.0 °F 39.2 °F 30.08 in SSW 6.0 mph 8.0 mph 83% 0.00 in
19:19 44.1 °F 39.0 °F 30.08 in South 6.0 mph 9.0 mph 82% 0.01 in
19:24 44.0 °F 38.9 °F 30.08 in South 7.0 mph 8.0 mph 82% 0.01 in
19:29 44.1 °F 39.0 °F 30.08 in South 4.0 mph 9.0 mph 82% 0.01 in
19:39 44.4 °F 39.2 °F 30.08 in South 5.0 mph 10.0 mph 82% 0.01 in
19:44 44.4 °F 39.2 °F 30.08 in South 5.0 mph 10.0 mph 82% 0.01 in
19:49 44.5 °F 39.3 °F 30.08 in South 6.0 mph 11.0 mph 82% 0.01 in
19:54 44.5 °F 39.0 °F 30.08 in South 5.0 mph 8.0 mph 81% 0.01 in
19:59 44.4 °F 38.9 °F 30.08 in SSE 8.0 mph 9.0 mph 81% 0.01 in
20:04 44.4 °F 38.9 °F 30.08 in South 5.0 mph 9.0 mph 81% 0.01 in
20:09 44.3 °F 38.8 °F 30.08 in South 4.0 mph 8.0 mph 81% 0.01 in
20:14 44.3 °F 38.8 °F 30.08 in South 5.0 mph 9.0 mph 81% 0.00 in
20:19 44.4 °F 38.9 °F 30.07 in SSW 3.0 mph 11.0 mph 81% 0.00 in
20:24 44.5 °F 39.0 °F 30.08 in South 5.0 mph 11.0 mph 81% 0.00 in
20:29 44.7 °F 38.9 °F 30.08 in South 10.0 mph 12.0 mph 80% 0.00 in
20:34 44.8 °F 39.0 °F 30.07 in South 6.0 mph 12.0 mph 80% 0.00 in
20:39 44.8 °F 39.0 °F 30.08 in South 6.0 mph 10.0 mph 80% 0.00 in
20:44 44.9 °F 38.8 °F 30.08 in South 6.0 mph 13.0 mph 79% 0.00 in
20:49 44.9 °F 38.8 °F 30.08 in South 6.0 mph 13.0 mph 79% 0.00 in
21:09 44.8 °F 38.4 °F 30.08 in South 5.0 mph 11.0 mph 78% 0.00 in
21:14 44.7 °F 38.3 °F 30.09 in South 3.0 mph 7.0 mph 78% 0.00 in
21:24 45.2 °F 38.7 °F 30.08 in SSW 4.0 mph 12.0 mph 78% 0.00 in
21:29 45.4 °F 38.6 °F 30.08 in SSE 6.0 mph 11.0 mph 77% 0.00 in
21:34 45.4 °F 38.6 °F 30.08 in SSW 7.0 mph 11.0 mph 77% 0.00 in
21:39 45.4 °F 38.3 °F 30.08 in SSE 8.0 mph 14.0 mph 76% 0.00 in
21:44 45.4 °F 38.3 °F 30.08 in South 3.0 mph 9.0 mph 76% 0.00 in
21:49 45.3 °F 38.2 °F 30.08 in South 6.0 mph 10.0 mph 76% 0.00 in
21:54 45.2 °F 38.1 °F 30.08 in South 5.0 mph 14.0 mph 76% 0.00 in
21:59 45.4 °F 38.3 °F 30.08 in South 5.0 mph 14.0 mph 76% 0.00 in
22:09 45.6 °F 38.5 °F 30.08 in South 5.0 mph 13.0 mph 76% 0.00 in
22:14 45.6 °F 38.5 °F 30.08 in South 5.0 mph 12.0 mph 76% 0.00 in
22:19 45.6 °F 38.5 °F 30.08 in South 5.0 mph 8.0 mph 76% 0.00 in
22:24 45.6 °F 38.5 °F 30.08 in South 7.0 mph 12.0 mph 76% 0.00 in
22:29 45.6 °F 38.5 °F 30.08 in South 6.0 mph 12.0 mph 76% 0.00 in
22:34 45.7 °F 38.6 °F 30.08 in SSW 7.0 mph 13.0 mph 76% 0.00 in
22:39 45.8 °F 38.3 °F 30.08 in South 6.0 mph 11.0 mph 75% 0.00 in
22:44 45.8 °F 38.3 °F 30.08 in South 6.0 mph 12.0 mph 75% 0.00 in
22:49 45.8 °F 38.3 °F 30.08 in South 5.0 mph 11.0 mph 75% 0.00 in
22:54 45.8 °F 38.3 °F 30.08 in South 4.0 mph 12.0 mph 75% 0.00 in
22:59 45.8 °F 38.0 °F 30.08 in South 5.0 mph 12.0 mph 74% 0.00 in
23:04 46.1 °F 38.3 °F 30.07 in South 5.0 mph 11.0 mph 74% 0.00 in
23:09 46.0 °F 38.2 °F 30.07 in South 5.0 mph 11.0 mph 74% 0.00 in
23:14 46.3 °F 38.5 °F 30.07 in South 5.0 mph 10.0 mph 74% 0.00 in
23:24 46.5 °F 38.3 °F 30.07 in SSW 7.0 mph 13.0 mph 73% 0.00 in
23:29 46.6 °F 38.4 °F 30.07 in South 6.0 mph 13.0 mph 73% 0.00 in
23:34 46.9 °F 38.7 °F 30.07 in South 9.0 mph 14.0 mph 73% 0.00 in
23:39 47.0 °F 38.8 °F 30.07 in South 6.0 mph 14.0 mph 73% 0.00 in
23:44 47.3 °F 39.1 °F 30.07 in SSW 7.0 mph 13.0 mph 73% 0.00 in
23:49 47.8 °F 39.2 °F 30.06 in South 4.0 mph 14.0 mph 72% 0.00 in
23:59 48.6 °F 39.3 °F 30.06 in South 8.0 mph 15.0 mph 70% 0.00 in
Buffalo, New York, USA
Compliments of Weather Underground - 1.25 mb